Time;durP1;ratioP1;P1;durP2;ratioP2;P2;SDS_P1;SDS_P2;PMS_P1;PMS_P2;Temp;Humidity;BMP_temperature;BMP_pressure;BME280_temperature;BME280_humidity;BME280_pressure;Samples;Min_cycle;Max_cycle;Signal;HPM_P1;HPM_P2
2022/07/05 00:02:00;;;;;;;4.00;1.13;;;17.20;99.90;;;;;;4976911;28;20031;-76
2022/07/05 00:04:26;;;;;;;2.80;1.30;;;17.20;99.90;;;;;;4975923;28;20038;-76
2022/07/05 00:09:36;;;;;;;4.40;1.23;;;17.20;99.90;;;;;;4974982;28;20126;-77
2022/07/05 00:12:02;;;;;;;3.67;1.50;;;17.10;99.90;;;;;;4989876;28;20122;-77
2022/07/05 00:14:28;;;;;;;4.90;1.42;;;17.10;99.90;;;;;;4976389;28;20425;-77
2022/07/05 00:16:54;;;;;;;3.47;1.50;;;17.10;99.90;;;;;;4977309;28;20026;-77
2022/07/05 00:19:20;;;;;;;3.00;1.27;;;17.00;99.90;;;;;;4977292;28;20503;-77
2022/07/05 00:21:45;;;;;;;4.90;1.75;;;17.00;99.90;;;;;;4978340;28;20155;-77
2022/07/05 00:24:11;;;;;;;8.88;2.22;;;17.00;99.90;;;;;;4969191;28;20455;-76
2022/07/05 00:26:36;;;;;;;7.40;1.88;;;17.00;99.90;;;;;;4978451;28;20102;-76
2022/07/05 00:29:02;;;;;;;3.33;1.48;;;16.90;99.90;;;;;;4979514;28;20594;-77
2022/07/05 00:31:28;;;;;;;5.20;1.70;;;16.80;99.90;;;;;;4987357;28;20073;-77
2022/07/05 00:33:53;;;;;;;3.55;1.38;;;16.80;99.90;;;;;;4987546;28;20414;-77
2022/07/05 00:36:19;;;;;;;4.25;1.95;;;16.80;99.90;;;;;;4984027;28;20078;-76
2022/07/05 00:38:45;;;;;;;4.90;1.50;;;16.70;99.90;;;;;;4991542;28;20129;-75
2022/07/05 00:41:11;;;;;;;2.80;1.35;;;16.70;99.90;;;;;;4974961;28;20041;-76
2022/07/05 00:43:36;;;;;;;3.08;1.35;;;16.70;99.90;;;;;;4972828;28;20043;-77
2022/07/05 00:46:02;;;;;;;4.65;1.40;;;16.70;99.90;;;;;;4987722;28;20030;-76
2022/07/05 00:48:28;;;;;;;4.90;1.50;;;16.60;99.90;;;;;;4975230;28;20050;-76
2022/07/05 00:50:53;;;;;;;6.97;1.80;;;16.70;99.90;;;;;;4977895;28;20116;-77
2022/07/05 00:53:19;;;;;;;6.63;1.60;;;16.60;99.90;;;;;;4975065;28;20170;-77
2022/07/05 00:55:45;;;;;;;3.00;1.38;;;16.60;99.90;;;;;;4973458;28;20049;-77
2022/07/05 00:58:11;;;;;;;5.22;1.80;;;16.60;99.90;;;;;;4977026;28;20062;-77
2022/07/05 01:00:37;;;;;;;2.65;1.13;;;16.60;99.90;;;;;;4972486;28;20038;-76
2022/07/05 01:03:03;;;;;;;5.30;1.88;;;16.60;99.90;;;;;;4995476;28;20026;-77
2022/07/05 01:05:31;;;;;;;5.78;1.60;;;16.60;99.90;;;;;;4975046;28;20022;-76
2022/07/05 01:08:00;;;;;;;6.40;1.73;;;16.50;99.90;;;;;;4972386;28;20125;-76
2022/07/05 01:10:26;;;;;;;4.78;1.83;;;16.50;99.90;;;;;;4976555;28;20061;-77
2022/07/05 01:12:52;;;;;;;6.20;2.17;;;16.40;99.90;;;;;;4967854;28;20030;-77
2022/07/05 01:15:20;;;;;;;5.43;1.70;;;16.40;99.90;;;;;;4971297;28;20030;-76
2022/07/05 01:17:46;;;;;;;5.03;1.52;;;16.40;99.90;;;;;;4971981;28;20026;-77
2022/07/05 01:20:12;;;;;;;5.20;1.77;;;16.40;99.90;;;;;;4971291;28;20081;-75
2022/07/05 01:22:54;;;;;;;5.07;1.63;;;16.40;99.90;;;;;;4975428;28;20035;-76
2022/07/05 01:25:21;;;;;;;5.88;2.58;;;16.40;99.90;;;;;;4977925;28;20030;-77
2022/07/05 01:27:48;;;;;;;6.93;2.28;;;16.30;99.90;;;;;;4974246;28;20108;-76
2022/07/05 01:30:15;;;;;;;3.72;1.83;;;16.30;99.90;;;;;;4988692;28;20384;-76
2022/07/05 01:32:40;;;;;;;2.95;1.45;;;16.30;99.90;;;;;;4987778;28;20093;-77
2022/07/05 01:35:08;;;;;;;3.85;1.90;;;16.30;99.90;;;;;;4973500;28;20502;-77
2022/07/05 01:37:35;;;;;;;4.00;1.70;;;16.20;99.90;;;;;;4988739;28;20034;-76
2022/07/05 01:40:04;;;;;;;6.13;2.00;;;16.30;99.90;;;;;;4976428;28;20095;-74
2022/07/05 01:42:30;;;;;;;4.65;1.60;;;16.30;99.90;;;;;;4987664;28;20034;-77
2022/07/05 01:44:56;;;;;;;4.53;1.80;;;16.30;99.90;;;;;;4985690;28;20035;-77
2022/07/05 01:47:23;;;;;;;5.18;1.88;;;16.20;99.90;;;;;;4975685;28;20035;-77
2022/07/05 01:49:51;;;;;;;7.57;1.88;;;16.20;99.90;;;;;;4977868;28;20512;-78
2022/07/05 01:52:19;;;;;;;4.80;1.88;;;16.20;99.90;;;;;;4969923;28;20093;-74
2022/07/05 01:54:45;;;;;;;4.35;1.52;;;16.10;99.90;;;;;;4976273;28;20023;-76
2022/07/05 01:57:11;;;;;;;5.25;2.17;;;16.10;99.90;;;;;;4970702;28;20084;-76
2022/07/05 01:59:37;;;;;;;3.95;2.17;;;16.10;99.90;;;;;;4955960;28;20059;-76
2022/07/05 02:02:05;;;;;;;4.28;2.10;;;16.10;99.90;;;;;;4971371;28;20042;-75
2022/07/05 02:04:32;;;;;;;5.40;2.03;;;16.10;99.90;;;;;;4969710;28;20831;-76
2022/07/05 02:06:58;;;;;;;4.40;2.13;;;16.10;99.90;;;;;;4973229;28;20034;-76
2022/07/05 02:09:24;;;;;;;3.75;1.85;;;16.00;99.90;;;;;;4974059;28;20065;-76
2022/07/05 02:11:50;;;;;;;4.60;2.10;;;16.00;99.90;;;;;;4971090;28;20047;-77
2022/07/05 02:14:15;;;;;;;5.35;2.15;;;16.00;99.90;;;;;;4968473;28;20129;-76
2022/07/05 02:16:41;;;;;;;7.38;2.05;;;16.00;99.90;;;;;;4978407;28;20019;-77
2022/07/05 02:19:07;;;;;;;5.47;2.00;;;16.00;99.90;;;;;;4993007;28;20027;-76
2022/07/05 02:21:33;;;;;;;4.75;2.35;;;15.90;99.90;;;;;;4977314;28;20101;-77
2022/07/05 02:23:58;;;;;;;3.50;2.08;;;15.90;99.90;;;;;;4973433;28;20034;-77
2022/07/05 02:26:24;;;;;;;7.22;1.98;;;15.90;99.90;;;;;;4982108;28;20057;-77
2022/07/05 02:28:50;;;;;;;2.13;1.80;;;15.80;99.90;;;;;;4987638;28;20034;-75
2022/07/05 02:31:16;;;;;;;4.72;2.25;;;15.80;99.90;;;;;;4967153;28;20035;-76
2022/07/05 02:33:42;;;;;;;4.35;2.30;;;15.80;99.90;;;;;;4977458;28;20023;-74
2022/07/05 02:36:13;;;;;;;6.75;2.38;;;15.80;99.90;;;;;;4977955;28;20037;-76
2022/07/05 02:38:40;;;;;;;6.15;1.90;;;15.70;99.90;;;;;;4976307;28;20019;-76
2022/07/05 02:41:11;;;;;;;4.72;1.90;;;15.70;99.90;;;;;;4973293;28;20027;-76
2022/07/05 02:43:38;;;;;;;5.13;2.20;;;15.70;99.90;;;;;;4982034;28;20081;-77
2022/07/05 02:46:04;;;;;;;7.20;2.35;;;15.70;99.90;;;;;;4962561;28;20475;-76
2022/07/05 02:48:30;;;;;;;6.25;2.00;;;15.70;99.90;;;;;;4977741;28;20041;-76
2022/07/05 02:50:56;;;;;;;3.75;2.33;;;15.60;99.90;;;;;;4975684;28;21740;-76
2022/07/05 02:53:22;;;;;;;5.93;2.25;;;15.60;99.90;;;;;;4976223;28;20026;-76
2022/07/05 02:55:48;;;;;;;5.70;2.45;;;15.60;99.90;;;;;;4974196;28;20061;-76
2022/07/05 02:58:14;;;;;;;6.05;2.30;;;15.60;99.90;;;;;;4983958;28;20038;-76
2022/07/05 03:00:39;;;;;;;3.17;2.20;;;15.50;99.90;;;;;;4980526;28;20034;-77
2022/07/05 03:03:06;;;;;;;4.00;2.40;;;15.50;99.90;;;;;;4978269;28;20438;-76
2022/07/05 03:05:31;;;;;;;4.97;2.53;;;15.50;99.90;;;;;;4977335;28;20069;-76
2022/07/05 03:07:57;;;;;;;3.33;2.20;;;15.50;99.90;;;;;;4977480;28;20031;-76
2022/07/05 03:10:23;;;;;;;6.03;2.38;;;15.50;99.90;;;;;;4979303;28;20031;-75
2022/07/05 03:12:48;;;;;;;4.40;2.85;;;15.50;99.90;;;;;;4979746;28;20058;-76
2022/07/05 03:15:14;;;;;;;5.45;2.65;;;15.50;99.90;;;;;;4976829;28;20046;-76
2022/07/05 03:17:40;;;;;;;4.22;2.15;;;15.40;99.90;;;;;;4983165;28;20050;-76
2022/07/05 03:20:06;;;;;;;7.72;2.60;;;15.40;99.90;;;;;;4971998;28;20054;-77
2022/07/05 03:22:32;;;;;;;6.03;2.83;;;15.40;99.90;;;;;;4960596;28;20023;-76
2022/07/05 03:24:57;;;;;;;6.03;2.95;;;15.40;99.90;;;;;;4972382;28;20042;-76
2022/07/05 03:27:23;;;;;;;4.25;2.47;;;15.40;99.90;;;;;;4978364;28;20073;-76
2022/07/05 03:29:48;;;;;;;3.88;2.25;;;15.40;99.90;;;;;;4975174;28;20034;-77
2022/07/05 03:32:14;;;;;;;6.18;2.88;;;15.40;99.90;;;;;;4980702;28;20487;-75
2022/07/05 03:34:40;;;;;;;8.70;3.08;;;15.40;99.90;;;;;;4975467;28;20038;-76
2022/07/05 03:37:06;;;;;;;6.40;2.97;;;15.40;99.90;;;;;;4975431;28;20034;-76
2022/07/05 03:39:31;;;;;;;4.03;2.28;;;15.30;99.90;;;;;;4969943;28;20051;-76
2022/07/05 03:41:57;;;;;;;7.32;2.58;;;15.30;99.90;;;;;;4978011;28;20058;-75
2022/07/05 03:44:23;;;;;;;7.20;2.70;;;15.30;99.90;;;;;;4973920;28;20026;-76
2022/07/05 03:46:48;;;;;;;3.72;2.50;;;15.30;99.90;;;;;;4979197;28;20038;-76
2022/07/05 03:49:14;;;;;;;6.47;2.88;;;15.30;99.90;;;;;;4972211;28;20033;-75
2022/07/05 03:51:41;;;;;;;6.18;2.70;;;15.30;99.90;;;;;;4957452;28;20038;-76
2022/07/05 03:54:06;;;;;;;3.50;2.15;;;15.30;99.90;;;;;;4975999;28;20025;-77
2022/07/05 03:56:32;;;;;;;5.72;2.90;;;15.40;99.90;;;;;;4969040;28;20038;-77
2022/07/05 03:58:58;;;;;;;5.97;2.45;;;15.40;99.90;;;;;;4985836;28;20038;-76
2022/07/05 04:01:23;;;;;;;6.10;2.95;;;15.40;99.90;;;;;;4989960;28;20018;-76
2022/07/05 04:03:50;;;;;;;7.30;2.78;;;15.40;99.90;;;;;;4985586;28;20038;-77
2022/07/05 04:06:16;;;;;;;5.15;2.80;;;15.40;99.90;;;;;;4974800;28;20027;-75
2022/07/05 04:08:42;;;;;;;7.00;3.35;;;15.40;99.90;;;;;;4977473;28;20037;-75
2022/07/05 04:11:09;;;;;;;8.90;2.97;;;15.40;99.90;;;;;;4981419;28;20084;-76
2022/07/05 04:13:35;;;;;;;4.90;2.78;;;15.40;99.90;;;;;;4976134;28;20518;-75
2022/07/05 04:16:00;;;;;;;4.40;2.55;;;15.40;99.90;;;;;;4976457;28;20118;-77
2022/07/05 04:18:26;;;;;;;6.03;2.50;;;15.40;99.90;;;;;;4974679;28;20101;-76
2022/07/05 04:20:52;;;;;;;4.97;3.42;;;15.40;99.90;;;;;;4975495;28;20052;-77
2022/07/05 04:23:17;;;;;;;6.45;2.88;;;15.40;99.90;;;;;;4977874;28;20038;-76
2022/07/05 04:25:43;;;;;;;4.82;2.90;;;15.40;99.90;;;;;;4979165;28;20026;-74
2022/07/05 04:28:09;;;;;;;6.18;3.05;;;15.40;99.90;;;;;;4977049;28;20050;-77
2022/07/05 04:30:35;;;;;;;6.25;2.60;;;15.40;99.90;;;;;;4979315;28;20733;-77
2022/07/05 04:33:00;;;;;;;7.07;3.05;;;15.40;99.90;;;;;;4973686;28;20022;-77
2022/07/05 04:35:26;;;;;;;8.20;3.45;;;15.50;99.90;;;;;;4994894;28;20022;-77
2022/07/05 04:37:52;;;;;;;3.92;2.70;;;15.50;99.90;;;;;;4988294;28;20026;-77
2022/07/05 04:40:17;;;;;;;9.68;3.25;;;15.50;99.90;;;;;;4976978;28;20029;-77
2022/07/05 04:42:43;;;;;;;3.45;2.47;;;15.60;99.90;;;;;;4972712;28;20495;-75
2022/07/05 04:45:09;;;;;;;4.82;2.35;;;15.60;99.90;;;;;;4976602;28;21532;-76
2022/07/05 04:47:35;;;;;;;7.50;2.95;;;15.60;99.90;;;;;;4975985;28;20061;-77
2022/07/05 04:50:02;;;;;;;9.07;2.95;;;15.60;99.90;;;;;;4973335;28;20039;-76
2022/07/05 04:52:28;;;;;;;5.03;2.60;;;15.70;99.90;;;;;;4978292;28;20051;-76
2022/07/05 04:54:54;;;;;;;8.05;3.25;;;15.70;99.90;;;;;;4981195;28;20080;-75
2022/07/05 04:57:20;;;;;;;4.40;2.67;;;15.70;99.90;;;;;;4985446;28;20027;-77
2022/07/05 04:59:45;;;;;;;5.53;2.85;;;15.80;99.90;;;;;;4977376;28;20039;-77
2022/07/05 05:02:11;;;;;;;5.15;2.70;;;15.80;99.90;;;;;;4973551;28;20050;-75
2022/07/05 05:04:37;;;;;;;5.80;3.00;;;15.80;99.90;;;;;;4977639;28;20034;-75
2022/07/05 05:07:03;;;;;;;8.50;2.88;;;15.80;99.90;;;;;;4958630;28;20443;-73
2022/07/05 05:09:29;;;;;;;4.82;2.92;;;15.90;99.90;;;;;;4973450;28;20064;-74
2022/07/05 05:11:54;;;;;;;4.50;1.90;;;15.80;99.90;;;;;;4981397;28;20038;-72
2022/07/05 05:14:20;;;;;;;3.20;1.60;;;16.80;99.90;;;;;;4973776;28;20074;-75
2022/07/05 05:16:46;;;;;;;6.82;2.50;;;17.30;99.90;;;;;;4971974;28;20034;-77
2022/07/05 05:19:12;;;;;;;7.13;1.80;;;17.60;99.90;;;;;;4973865;28;20018;-75
2022/07/05 05:21:37;;;;;;;4.88;2.28;;;17.80;99.90;;;;;;4976098;28;20026;-76
2022/07/05 05:24:04;;;;;;;5.13;2.40;;;17.40;99.90;;;;;;4976509;28;20462;-74
2022/07/05 05:26:29;;;;;;;3.83;2.17;;;17.00;99.90;;;;;;4974642;28;20113;-75
2022/07/05 05:28:55;;;;;;;5.20;2.55;;;16.80;99.90;;;;;;4963400;28;20027;-74
2022/07/05 05:31:21;;;;;;;8.52;2.65;;;16.60;99.90;;;;;;4971765;28;20030;-75
2022/07/05 05:33:47;;;;;;;4.32;2.10;;;16.40;99.90;;;;;;4974397;28;20161;-75
2022/07/05 05:36:12;;;;;;;4.18;1.80;;;16.40;99.90;;;;;;4977141;28;20028;-73
2022/07/05 05:38:38;;;;;;;4.40;1.90;;;16.40;99.90;;;;;;4980136;28;20509;-75
2022/07/05 05:41:04;;;;;;;5.03;1.70;;;16.30;99.90;;;;;;4970231;28;20461;-75
2022/07/05 05:43:30;;;;;;;5.95;2.42;;;16.40;99.90;;;;;;4969679;28;20035;-76
2022/07/05 05:45:56;;;;;;;5.45;2.03;;;16.40;99.90;;;;;;4986482;28;20085;-75
2022/07/05 05:48:22;;;;;;;4.25;1.98;;;16.40;99.90;;;;;;4973064;28;20078;-76
2022/07/05 05:50:48;;;;;;;5.28;2.08;;;16.50;99.90;;;;;;4974861;28;20102;-76
2022/07/05 05:53:14;;;;;;;6.70;2.05;;;16.50;99.90;;;;;;4977162;28;20046;-77
2022/07/05 05:55:41;;;;;;;6.80;2.05;;;16.60;99.90;;;;;;4983485;28;20040;-75
2022/07/05 05:58:17;;;;;;;4.43;1.70;;;16.60;99.90;;;;;;4988140;28;20042;-75
2022/07/05 06:00:47;;;;;;;9.32;2.20;;;16.60;99.90;;;;;;4974494;28;20064;-76
2022/07/05 06:03:15;;;;;;;4.18;2.13;;;16.70;99.90;;;;;;4972254;28;20035;-77
2022/07/05 06:05:41;;;;;;;8.55;1.95;;;16.70;99.90;;;;;;4989243;28;20126;-78
2022/07/05 06:08:08;;;;;;;3.28;2.00;;;16.70;99.90;;;;;;4971105;28;20109;-76
2022/07/05 06:10:38;;;;;;;4.18;1.83;;;16.70;99.90;;;;;;4980461;28;20502;-77
2022/07/05 06:13:06;;;;;;;3.17;1.77;;;16.90;99.90;;;;;;4981542;28;20037;-77
2022/07/05 06:15:32;;;;;;;8.55;1.85;;;16.90;99.90;;;;;;4995340;28;20035;-76
2022/07/05 06:17:58;;;;;;;4.13;2.22;;;17.00;99.90;;;;;;5007940;28;20042;-77
2022/07/05 06:20:26;;;;;;;5.70;1.80;;;17.00;99.90;;;;;;5003217;28;20034;-77
2022/07/05 06:22:52;;;;;;;4.47;1.70;;;17.10;99.90;;;;;;4993195;28;20034;-77
2022/07/05 06:25:20;;;;;;;3.05;1.55;;;17.10;99.90;;;;;;4993819;28;20055;-77
2022/07/05 06:27:48;;;;;;;4.82;1.90;;;17.10;99.90;;;;;;4956212;28;20525;-77
2022/07/05 06:30:18;;;;;;;5.25;1.88;;;17.20;99.90;;;;;;4964248;28;20054;-76
2022/07/05 06:32:44;;;;;;;5.57;1.92;;;17.20;99.90;;;;;;4984911;28;20031;-76
2022/07/05 06:35:12;;;;;;;5.50;1.70;;;17.20;99.90;;;;;;4969193;28;20031;-76
2022/07/05 06:37:44;;;;;;;10.20;2.15;;;17.30;99.90;;;;;;4954355;28;20125;-76
2022/07/05 06:40:16;;;;;;;3.90;1.40;;;17.40;99.90;;;;;;4967593;28;20761;-74
2022/07/05 06:42:42;;;;;;;3.97;1.85;;;17.40;99.90;;;;;;4968087;28;20038;-77
2022/07/05 06:45:08;;;;;;;4.68;1.38;;;17.50;99.90;;;;;;4948698;28;20030;-74
2022/07/05 06:47:34;;;;;;;5.43;1.77;;;17.50;99.90;;;;;;4972899;28;20113;-77
2022/07/05 06:50:02;;;;;;;2.88;1.30;;;17.50;99.90;;;;;;4978244;28;21077;-76
2022/07/05 06:52:28;;;;;;;3.85;1.50;;;17.60;99.90;;;;;;4977616;28;20026;-76
2022/07/05 06:54:54;;;;;;;4.78;1.90;;;17.70;99.90;;;;;;4973229;28;20080;-76
2022/07/05 06:57:21;;;;;;;4.90;1.60;;;17.80;99.90;;;;;;4969930;28;20035;-76
2022/07/05 06:59:47;;;;;;;5.35;1.73;;;18.00;99.90;;;;;;4966847;28;20055;-76
2022/07/05 07:02:14;;;;;;;5.70;1.33;;;18.10;99.90;;;;;;4979323;28;20026;-75
2022/07/05 07:04:40;;;;;;;3.70;1.35;;;18.20;99.90;;;;;;4973842;28;20260;-75
2022/07/05 07:09:17;;;;;;;4.85;1.20;;;18.30;99.90;;;;;;4976029;28;20103;-75
2022/07/05 07:10:01;;;;;;;4.20;1.33;;;18.50;99.90;;;;;;4982915;28;20030;-76
2022/07/05 07:12:29;;;;;;;7.35;1.55;;;18.60;99.90;;;;;;4979034;28;20449;-75
2022/07/05 07:14:56;;;;;;;4.07;1.50;;;18.70;99.90;;;;;;4984192;28;20027;-77
2022/07/05 07:17:21;;;;;;;4.07;1.25;;;18.60;99.90;;;;;;4979884;28;20029;-78
2022/07/05 07:19:47;;;;;;;4.03;1.40;;;18.70;99.90;;;;;;4960563;28;20022;-75
2022/07/05 07:22:13;;;;;;;4.45;1.30;;;18.60;99.90;;;;;;4979250;28;20062;-77
2022/07/05 07:24:38;;;;;;;3.53;1.40;;;18.60;99.90;;;;;;4964314;28;20023;-77
2022/07/05 07:27:06;;;;;;;5.70;1.75;;;18.60;99.90;;;;;;4979505;28;20502;-76
2022/07/05 07:29:33;;;;;;;6.00;1.40;;;18.60;99.90;;;;;;4979866;28;20037;-77
2022/07/05 07:32:00;;;;;;;4.70;1.35;;;18.70;99.90;;;;;;4978994;28;20027;-76
2022/07/05 07:34:28;;;;;;;3.83;1.15;;;18.60;99.90;;;;;;4978352;28;20074;-77
2022/07/05 07:36:55;;;;;;;3.25;1.30;;;18.70;99.90;;;;;;4979045;28;20053;-77
2022/07/05 07:39:21;;;;;;;3.92;1.33;;;18.90;99.90;;;;;;5000036;28;20042;-76
2022/07/05 07:41:47;;;;;;;2.92;1.35;;;18.80;99.90;;;;;;4984484;28;20038;-76
2022/07/05 07:44:13;;;;;;;5.03;1.40;;;18.90;99.90;;;;;;4978651;28;20030;-75
2022/07/05 07:46:39;;;;;;;4.20;1.48;;;18.80;99.90;;;;;;4972916;28;20495;-76
2022/07/05 07:49:05;;;;;;;6.15;1.25;;;18.80;99.90;;;;;;4974961;28;20085;-77
2022/07/05 07:51:32;;;;;;;5.70;1.60;;;18.70;99.90;;;;;;4975269;28;20037;-76
2022/07/05 07:53:57;;;;;;;3.28;1.15;;;18.60;99.90;;;;;;4994232;28;20023;-75
2022/07/05 07:56:23;;;;;;;5.05;1.30;;;18.70;99.90;;;;;;4959687;28;20099;-75
2022/07/05 07:58:49;;;;;;;4.53;1.10;;;18.70;99.90;;;;;;4974149;28;20031;-75
2022/07/05 08:01:15;;;;;;;4.13;1.17;;;18.60;99.90;;;;;;4978132;28;20061;-76
2022/07/05 08:03:41;;;;;;;5.32;1.30;;;18.60;99.90;;;;;;4982386;28;20064;-76
2022/07/05 08:06:08;;;;;;;3.80;0.90;;;18.60;99.90;;;;;;4997123;28;20080;-76
2022/07/05 08:08:38;;;;;;;1.67;1.05;;;18.70;99.90;;;;;;4994570;28;20072;-75
2022/07/05 08:11:05;;;;;;;4.78;1.30;;;18.70;99.90;;;;;;4979928;28;20514;-76
2022/07/05 08:13:31;;;;;;;3.70;0.98;;;18.60;99.90;;;;;;4995036;28;20041;-77
2022/07/05 08:15:57;;;;;;;3.28;0.85;;;18.60;99.40;;;;;;4978142;28;20414;-77
2022/07/05 08:23:52;;;;;;;3.85;1.00;;;18.70;98.30;;;;;;4976955;28;20117;-76
2022/07/05 08:26:18;;;;;;;2.78;1.20;;;18.80;98.20;;;;;;4960982;28;20035;-76
2022/07/05 08:28:44;;;;;;;1.83;0.85;;;18.80;98.10;;;;;;4961279;28;20031;-76
2022/07/05 08:31:10;;;;;;;3.55;0.95;;;18.90;97.60;;;;;;4976037;28;20066;-76
2022/07/05 08:33:36;;;;;;;1.98;0.60;;;19.10;97.10;;;;;;4985138;28;20033;-73
2022/07/05 08:36:02;;;;;;;1.58;0.90;;;19.10;95.10;;;;;;4964225;28;20101;-76
2022/07/05 08:38:28;;;;;;;3.42;1.50;;;19.10;95.60;;;;;;4981496;28;20398;-76
2022/07/05 08:40:56;;;;;;;3.42;0.90;;;19.20;96.00;;;;;;4978606;28;20038;-75
2022/07/05 08:43:22;;;;;;;2.33;0.90;;;19.20;94.00;;;;;;4956855;28;20026;-75
2022/07/05 08:45:52;;;;;;;3.83;0.98;;;19.30;93.50;;;;;;4980383;28;20094;-76
2022/07/05 08:48:19;;;;;;;1.48;0.70;;;19.30;95.00;;;;;;4995311;28;20026;-77
2022/07/05 08:50:48;;;;;;;2.70;0.60;;;19.50;94.70;;;;;;4965838;28;20023;-76
2022/07/05 08:53:15;;;;;;;3.38;0.85;;;19.70;94.40;;;;;;4996332;28;20030;-76
2022/07/05 08:55:42;;;;;;;1.40;0.60;;;19.90;93.80;;;;;;4978218;28;20023;-77
2022/07/05 08:58:08;;;;;;;4.90;0.70;;;19.90;92.40;;;;;;4977997;28;20034;-76
2022/07/05 09:00:36;;;;;;;2.58;0.70;;;20.00;92.60;;;;;;4974049;28;20031;-74
2022/07/05 09:03:02;;;;;;;2.72;0.63;;;20.00;90.10;;;;;;4983678;28;20472;-78
2022/07/05 09:05:30;;;;;;;2.95;0.63;;;19.90;90.60;;;;;;4983616;28;20402;-76
2022/07/05 09:08:00;;;;;;;3.17;0.77;;;19.90;90.10;;;;;;4983204;28;20022;-77
2022/07/05 09:10:28;;;;;;;2.10;0.60;;;20.00;89.50;;;;;;4980321;28;20398;-77
2022/07/05 09:12:55;;;;;;;1.85;0.70;;;20.10;89.10;;;;;;4990941;28;20019;-76
2022/07/05 09:15:21;;;;;;;2.80;0.60;;;20.10;86.00;;;;;;4963828;28;20343;-76
2022/07/05 09:17:48;;;;;;;2.40;0.90;;;20.10;85.40;;;;;;4978269;28;21244;-76
2022/07/05 09:20:18;;;;;;;2.80;0.93;;;19.90;87.00;;;;;;4978186;28;20095;-76
2022/07/05 09:22:52;;;;;;;3.42;0.85;;;19.80;89.20;;;;;;4966487;28;20080;-75
2022/07/05 09:25:30;;;;;;;2.17;0.60;;;19.80;90.10;;;;;;4972142;28;20031;-76
2022/07/05 09:28:04;;;;;;;3.13;0.65;;;19.80;87.80;;;;;;4979151;28;20105;-77
2022/07/05 09:30:31;;;;;;;5.18;1.33;;;19.80;86.30;;;;;;4982037;28;20094;-77
2022/07/05 09:33:10;;;;;;;2.67;0.80;;;20.00;85.50;;;;;;4983366;28;20038;-77
2022/07/05 09:35:40;;;;;;;2.85;0.70;;;20.10;86.50;;;;;;4982158;28;20038;-78
2022/07/05 09:38:19;;;;;;;0.95;0.68;;;20.20;87.50;;;;;;4979748;28;20027;-77
2022/07/05 09:40:50;;;;;;;3.70;0.80;;;20.30;85.50;;;;;;4986033;28;20593;-77
2022/07/05 09:43:22;;;;;;;2.50;0.88;;;20.20;84.50;;;;;;4993071;28;20030;-77
2022/07/05 09:46:04;;;;;;;3.72;0.50;;;20.10;84.40;;;;;;4986843;28;20031;-77
2022/07/05 09:48:32;;;;;;;3.22;0.73;;;20.20;82.00;;;;;;4980859;28;20027;-78
2022/07/05 09:51:09;;;;;;;1.75;0.70;;;20.20;77.10;;;;;;4986396;28;20026;-77
2022/07/05 09:53:44;;;;;;;2.75;0.80;;;20.10;79.00;;;;;;4988682;28;20494;-78
2022/07/05 09:56:10;;;;;;;4.75;1.08;;;20.10;80.60;;;;;;4985359;28;20487;-81
2022/07/05 09:58:36;;;;;;;2.70;0.88;;;20.10;79.60;;;;;;4986445;28;20061;-76
2022/07/05 10:01:26;;;;;;;2.63;1.10;;;19.90;82.50;;;;;;4983690;28;20030;-76
2022/07/05 10:03:57;;;;;;;4.38;1.10;;;19.90;83.40;;;;;;4986191;28;20110;-77
2022/07/05 10:06:25;;;;;;;2.58;1.30;;;19.90;83.90;;;;;;5004747;28;20550;-78
2022/07/05 10:08:53;;;;;;;3.40;0.98;;;20.00;84.90;;;;;;4980368;28;20066;-77
2022/07/05 10:11:20;;;;;;;1.98;0.60;;;20.10;85.30;;;;;;4967179;28;20469;-76
2022/07/05 10:13:51;;;;;;;2.58;0.60;;;20.10;86.40;;;;;;4987059;28;20077;-77
2022/07/05 10:16:18;;;;;;;2.95;0.60;;;20.20;84.40;;;;;;4985135;28;20022;-78
2022/07/05 10:18:46;;;;;;;3.67;0.90;;;20.20;82.50;;;;;;5002594;28;20023;-77
2022/07/05 10:21:17;;;;;;;2.28;0.75;;;20.30;82.90;;;;;;4984087;28;20036;-76
2022/07/05 10:23:48;;;;;;;1.25;0.77;;;20.30;83.70;;;;;;4964609;28;20038;-77
2022/07/05 10:26:16;;;;;;;3.08;0.60;;;20.40;85.30;;;;;;4973840;28;20059;-76
2022/07/05 10:28:50;;;;;;;5.10;0.80;;;20.50;84.70;;;;;;4975973;28;20026;-77
2022/07/05 10:31:16;;;;;;;0.57;0.45;;;20.50;81.80;;;;;;4981254;28;20058;-77
2022/07/05 10:33:43;;;;;;;1.80;0.47;;;20.60;82.20;;;;;;4985057;28;20034;-76
2022/07/05 10:36:13;;;;;;;2.75;0.50;;;20.70;82.20;;;;;;4961053;28;20033;-76
2022/07/05 10:38:46;;;;;;;2.10;0.60;;;20.90;78.10;;;;;;4983109;28;20033;-77
2022/07/05 10:41:22;;;;;;;3.15;0.70;;;21.00;78.10;;;;;;4980367;28;20106;-76
2022/07/05 10:43:55;;;;;;;1.83;0.40;;;21.10;77.50;;;;;;4980610;28;20030;-76
2022/07/05 10:46:38;;;;;;;0.90;0.40;;;21.00;78.00;;;;;;4979751;28;20089;-76
2022/07/05 10:49:24;;;;;;;2.80;0.60;;;21.20;77.00;;;;;;5002218;28;20035;-76
2022/07/05 10:51:50;;;;;;;1.67;0.70;;;21.40;77.20;;;;;;4987985;28;20050;-76
2022/07/05 10:54:16;;;;;;;1.50;0.65;;;21.40;79.00;;;;;;4984150;28;20080;-77
2022/07/05 10:57:31;;;;;;;1.85;1.13;;;21.60;78.90;;;;;;4979126;28;20026;-77
2022/07/05 11:00:11;;;;;;;1.42;0.40;;;21.80;79.30;;;;;;4982971;28;20050;-77
2022/07/05 11:02:37;;;;;;;1.25;0.40;;;21.90;77.20;;;;;;4997002;28;20035;-77
2022/07/05 11:05:03;;;;;;;1.77;0.60;;;21.90;76.20;;;;;;4980578;28;20027;-76
2022/07/05 11:08:02;;;;;;;5.57;0.93;;;21.70;73.30;;;;;;4980171;28;20037;-79
2022/07/05 11:10:31;;;;;;;3.80;0.77;;;21.70;74.80;;;;;;4996546;28;20046;-75
2022/07/05 11:12:57;;;;;;;4.50;1.17;;;21.80;74.80;;;;;;4980583;28;20050;-79
2022/07/05 11:15:22;;;;;;;1.67;0.70;;;21.90;75.40;;;;;;4982325;28;20057;-78
2022/07/05 11:17:48;;;;;;;1.92;0.50;;;22.00;72.30;;;;;;4983775;28;20034;-78
2022/07/05 11:20:26;;;;;;;1.85;1.23;;;22.20;73.50;;;;;;4987618;28;20028;-80
2022/07/05 11:23:05;;;;;;;3.55;0.80;;;22.50;72.10;;;;;;4982719;28;20034;-75
2022/07/05 11:25:33;;;;;;;3.63;1.08;;;23.30;71.20;;;;;;4993317;28;20105;-76
2022/07/05 11:28:23;;;;;;;1.80;0.70;;;23.70;68.10;;;;;;4983452;28;20034;-79
2022/07/05 11:30:59;;;;;;;6.00;1.13;;;24.80;64.60;;;;;;4997533;28;20037;-78
2022/07/05 11:33:35;;;;;;;4.57;0.93;;;25.90;60.30;;;;;;4984287;28;20027;-79
2022/07/05 11:36:04;;;;;;;2.55;0.52;;;26.70;59.70;;;;;;4982254;28;20022;-79
2022/07/05 11:38:31;;;;;;;1.63;0.70;;;27.80;57.40;;;;;;4982152;28;20088;-77
2022/07/05 11:41:13;;;;;;;1.73;0.40;;;29.00;53.90;;;;;;4963723;28;20562;-79
2022/07/05 11:43:41;;;;;;;2.42;0.50;;;29.90;49.50;;;;;;4981684;28;20027;-78
2022/07/05 11:46:10;;;;;;;1.60;0.80;;;30.80;47.20;;;;;;4985512;28;20045;-78
2022/07/05 11:48:38;;;;;;;1.42;0.63;;;31.80;46.80;;;;;;4992895;28;20780;-77
2022/07/05 11:51:14;;;;;;;2.00;0.60;;;32.60;44.00;;;;;;4982436;28;20077;-79
2022/07/05 11:53:41;;;;;;;2.13;0.98;;;32.70;44.20;;;;;;4983269;28;20031;-77
2022/07/05 11:56:07;;;;;;;1.98;1.20;;;32.50;42.30;;;;;;4965940;28;20033;-80
2022/07/05 11:58:33;;;;;;;3.05;1.85;;;32.10;43.10;;;;;;4986171;28;20082;-79
2022/07/05 12:00:59;;;;;;;2.90;1.02;;;31.50;42.50;;;;;;4982089;28;20483;-78
2022/07/05 12:03:27;;;;;;;1.73;0.60;;;30.10;43.30;;;;;;4968182;28;20019;-78
2022/07/05 12:05:52;;;;;;;2.00;0.70;;;28.70;45.80;;;;;;4989150;28;20026;-80
2022/07/05 12:08:22;;;;;;;3.33;0.75;;;28.40;47.50;;;;;;4989906;28;20478;-80
2022/07/05 12:13:44;;;;;;;1.88;0.70;;;28.30;47.50;;;;;;4986952;28;20037;-78
2022/07/05 12:16:12;;;;;;;3.50;0.80;;;28.60;46.80;;;;;;4987195;28;20025;-77
2022/07/05 12:18:55;;;;;;;1.95;0.70;;;29.00;46.60;;;;;;4985594;28;20038;-78
2022/07/05 12:21:22;;;;;;;1.58;0.60;;;29.50;45.80;;;;;;4984658;28;20042;-79
2022/07/05 12:23:49;;;;;;;3.00;0.80;;;28.80;45.40;;;;;;5001533;28;20030;-80
2022/07/05 12:26:16;;;;;;;3.13;0.75;;;28.00;46.40;;;;;;4985691;28;20114;-80
2022/07/05 12:28:43;;;;;;;1.80;0.80;;;27.60;46.60;;;;;;4969148;28;20027;-79
2022/07/05 12:31:23;;;;;;;3.53;1.00;;;27.30;48.20;;;;;;4986210;28;20579;-79
2022/07/05 12:33:51;;;;;;;2.35;0.60;;;27.50;47.40;;;;;;4981588;28;20022;-79
2022/07/05 12:36:19;;;;;;;1.30;0.60;;;27.70;48.10;;;;;;5001893;28;20042;-79
2022/07/05 12:38:46;;;;;;;1.63;0.70;;;27.70;48.80;;;;;;4981154;28;20088;-79
2022/07/05 12:41:20;;;;;;;3.15;0.65;;;28.60;47.40;;;;;;4983068;28;20030;-79
2022/07/05 12:43:58;;;;;;;3.83;0.70;;;28.80;46.60;;;;;;4984197;28;20057;-79
2022/07/05 12:46:37;;;;;;;2.70;0.70;;;27.60;48.80;;;;;;4983245;28;20169;-79
2022/07/05 12:49:03;;;;;;;2.35;0.57;;;26.70;49.10;;;;;;4983543;28;20026;-78
2022/07/05 12:51:36;;;;;;;2.35;0.93;;;26.10;50.10;;;;;;4970486;28;20033;-78
2022/07/05 12:59:36;;;;;;;0.70;0.60;;;26.50;49.70;;;;;;4987624;28;20034;-77
2022/07/05 13:02:03;;;;;;;4.10;0.75;;;26.20;51.00;;;;;;4985614;28;20038;-80
2022/07/05 13:04:29;;;;;;;2.90;0.70;;;25.60;52.30;;;;;;4986380;28;20033;-78
2022/07/05 13:06:58;;;;;;;1.63;0.70;;;24.90;52.70;;;;;;4989563;28;20026;-79
2022/07/05 13:09:36;;;;;;;1.70;0.65;;;24.70;53.80;;;;;;4997747;28;20065;-78